sensor_id;sensor_type;location;lat;lon;timestamp;temperature;humidity
4910;DHT22;2470;49.868;8.660;2023-04-03T00:01:23;6.80;99.90
4910;DHT22;2470;49.868;8.660;2023-04-03T00:03:49;6.80;99.90
4910;DHT22;2470;49.868;8.660;2023-04-03T00:06:15;6.70;99.90
4910;DHT22;2470;49.868;8.660;2023-04-03T00:08:40;6.70;99.90
4910;DHT22;2470;49.868;8.660;2023-04-03T00:11:06;6.70;99.90
4910;DHT22;2470;49.868;8.660;2023-04-03T00:13:33;6.70;99.90
4910;DHT22;2470;49.868;8.660;2023-04-03T00:15:59;6.60;99.90
4910;DHT22;2470;49.868;8.660;2023-04-03T00:18:24;6.70;99.90
4910;DHT22;2470;49.868;8.660;2023-04-03T00:20:50;6.60;99.90
4910;DHT22;2470;49.868;8.660;2023-04-03T00:23:16;6.50;99.90
4910;DHT22;2470;49.868;8.660;2023-04-03T00:25:42;6.50;99.90
4910;DHT22;2470;49.868;8.660;2023-04-03T00:28:08;6.50;99.90
4910;DHT22;2470;49.868;8.660;2023-04-03T00:30:34;6.40;99.90
4910;DHT22;2470;49.868;8.660;2023-04-03T00:33:00;6.40;99.90
4910;DHT22;2470;49.868;8.660;2023-04-03T00:35:26;6.50;99.90
4910;DHT22;2470;49.868;8.660;2023-04-03T00:37:53;6.50;99.90
4910;DHT22;2470;49.868;8.660;2023-04-03T00:40:20;6.40;99.90
4910;DHT22;2470;49.868;8.660;2023-04-03T00:42:49;6.40;99.90
4910;DHT22;2470;49.868;8.660;2023-04-03T00:47:45;6.40;99.90
4910;DHT22;2470;49.868;8.660;2023-04-03T00:50:11;6.40;99.90
4910;DHT22;2470;49.868;8.660;2023-04-03T00:52:37;6.40;99.90
4910;DHT22;2470;49.868;8.660;2023-04-03T00:55:05;6.40;99.90
4910;DHT22;2470;49.868;8.660;2023-04-03T00:57:33;6.40;99.90
4910;DHT22;2470;49.868;8.660;2023-04-03T01:00:11;6.40;99.90
4910;DHT22;2470;49.868;8.660;2023-04-03T01:02:38;6.40;99.90
4910;DHT22;2470;49.868;8.660;2023-04-03T01:05:06;6.40;99.90
4910;DHT22;2470;49.868;8.660;2023-04-03T01:07:32;6.40;99.90
4910;DHT22;2470;49.868;8.660;2023-04-03T01:10:02;6.40;99.90
4910;DHT22;2470;49.868;8.660;2023-04-03T01:12:31;6.40;99.90
4910;DHT22;2470;49.868;8.660;2023-04-03T01:15:01;6.40;99.90
4910;DHT22;2470;49.868;8.660;2023-04-03T01:25:42;6.40;99.90
4910;DHT22;2470;49.868;8.660;2023-04-03T01:28:16;6.40;99.90
4910;DHT22;2470;49.868;8.660;2023-04-03T01:30:48;6.30;99.90
4910;DHT22;2470;49.868;8.660;2023-04-03T01:33:16;6.30;99.90
4910;DHT22;2470;49.868;8.660;2023-04-03T01:35:42;6.30;99.90
4910;DHT22;2470;49.868;8.660;2023-04-03T01:38:07;6.30;99.90
4910;DHT22;2470;49.868;8.660;2023-04-03T01:40:33;6.40;99.90
4910;DHT22;2470;49.868;8.660;2023-04-03T01:42:59;6.40;99.90
4910;DHT22;2470;49.868;8.660;2023-04-03T01:45:24;6.40;99.90
4910;DHT22;2470;49.868;8.660;2023-04-03T01:47:50;6.40;99.90
4910;DHT22;2470;49.868;8.660;2023-04-03T01:50:15;6.40;99.90
4910;DHT22;2470;49.868;8.660;2023-04-03T01:52:41;6.40;99.90
4910;DHT22;2470;49.868;8.660;2023-04-03T01:55:07;6.40;99.90
4910;DHT22;2470;49.868;8.660;2023-04-03T01:57:32;6.50;99.90
4910;DHT22;2470;49.868;8.660;2023-04-03T01:59:58;6.40;99.90
4910;DHT22;2470;49.868;8.660;2023-04-03T02:02:23;6.40;99.90
4910;DHT22;2470;49.868;8.660;2023-04-03T02:04:49;6.50;99.90
4910;DHT22;2470;49.868;8.660;2023-04-03T02:07:14;6.50;99.90
4910;DHT22;2470;49.868;8.660;2023-04-03T02:09:40;6.40;99.90
4910;DHT22;2470;49.868;8.660;2023-04-03T02:12:06;6.40;99.90
4910;DHT22;2470;49.868;8.660;2023-04-03T02:14:31;6.40;99.90
4910;DHT22;2470;49.868;8.660;2023-04-03T02:16:57;6.40;99.90
4910;DHT22;2470;49.868;8.660;2023-04-03T02:19:23;6.40;99.90
4910;DHT22;2470;49.868;8.660;2023-04-03T02:21:48;6.40;99.90
4910;DHT22;2470;49.868;8.660;2023-04-03T02:24:14;6.40;99.90
4910;DHT22;2470;49.868;8.660;2023-04-03T02:26:40;6.40;99.90
4910;DHT22;2470;49.868;8.660;2023-04-03T02:29:05;6.40;99.90
4910;DHT22;2470;49.868;8.660;2023-04-03T02:31:31;6.30;99.90
4910;DHT22;2470;49.868;8.660;2023-04-03T02:33:56;6.30;99.90
4910;DHT22;2470;49.868;8.660;2023-04-03T02:36:22;6.30;99.90
4910;DHT22;2470;49.868;8.660;2023-04-03T02:38:47;6.30;99.90
4910;DHT22;2470;49.868;8.660;2023-04-03T02:41:13;6.30;99.90
4910;DHT22;2470;49.868;8.660;2023-04-03T02:43:39;6.30;99.90
4910;DHT22;2470;49.868;8.660;2023-04-03T02:46:05;6.20;99.90
4910;DHT22;2470;49.868;8.660;2023-04-03T02:48:31;6.20;99.90
4910;DHT22;2470;49.868;8.660;2023-04-03T02:50:57;6.20;99.90
4910;DHT22;2470;49.868;8.660;2023-04-03T02:53:23;6.30;99.90
4910;DHT22;2470;49.868;8.660;2023-04-03T02:55:48;6.20;99.90
4910;DHT22;2470;49.868;8.660;2023-04-03T02:58:14;6.20;99.90
4910;DHT22;2470;49.868;8.660;2023-04-03T03:00:39;6.10;99.90
4910;DHT22;2470;49.868;8.660;2023-04-03T03:03:05;6.10;99.90
4910;DHT22;2470;49.868;8.660;2023-04-03T03:05:31;6.10;99.90
4910;DHT22;2470;49.868;8.660;2023-04-03T03:07:57;6.10;99.90
4910;DHT22;2470;49.868;8.660;2023-04-03T03:10:22;6.10;99.90
4910;DHT22;2470;49.868;8.660;2023-04-03T03:12:48;6.10;99.90
4910;DHT22;2470;49.868;8.660;2023-04-03T03:15:14;6.10;99.90
4910;DHT22;2470;49.868;8.660;2023-04-03T03:17:40;6.00;99.90
4910;DHT22;2470;49.868;8.660;2023-04-03T03:20:06;6.00;99.90
4910;DHT22;2470;49.868;8.660;2023-04-03T03:22:34;6.00;99.90
4910;DHT22;2470;49.868;8.660;2023-04-03T03:25:00;5.90;99.90
4910;DHT22;2470;49.868;8.660;2023-04-03T03:27:26;5.90;99.90
4910;DHT22;2470;49.868;8.660;2023-04-03T03:29:52;5.90;99.90
4910;DHT22;2470;49.868;8.660;2023-04-03T03:32:17;5.80;99.90
4910;DHT22;2470;49.868;8.660;2023-04-03T03:34:43;5.90;99.90
4910;DHT22;2470;49.868;8.660;2023-04-03T03:37:08;5.90;99.90
4910;DHT22;2470;49.868;8.660;2023-04-03T03:39:33;5.90;99.90
4910;DHT22;2470;49.868;8.660;2023-04-03T03:41:59;5.90;99.90
4910;DHT22;2470;49.868;8.660;2023-04-03T03:44:25;5.90;99.90
4910;DHT22;2470;49.868;8.660;2023-04-03T03:46:50;5.90;99.90
4910;DHT22;2470;49.868;8.660;2023-04-03T03:49:16;5.90;99.90
4910;DHT22;2470;49.868;8.660;2023-04-03T03:51:41;5.90;99.90
4910;DHT22;2470;49.868;8.660;2023-04-03T03:54:07;5.90;99.90
4910;DHT22;2470;49.868;8.660;2023-04-03T03:56:33;5.90;99.90
4910;DHT22;2470;49.868;8.660;2023-04-03T03:58:59;5.90;99.90
4910;DHT22;2470;49.868;8.660;2023-04-03T04:01:25;5.90;99.90
4910;DHT22;2470;49.868;8.660;2023-04-03T04:03:51;5.90;99.90
4910;DHT22;2470;49.868;8.660;2023-04-03T04:06:16;5.90;99.90
4910;DHT22;2470;49.868;8.660;2023-04-03T04:08:42;5.90;99.90
4910;DHT22;2470;49.868;8.660;2023-04-03T04:11:09;5.90;99.90
4910;DHT22;2470;49.868;8.660;2023-04-03T04:13:34;5.90;99.90
4910;DHT22;2470;49.868;8.660;2023-04-03T04:16:00;5.90;99.90
4910;DHT22;2470;49.868;8.660;2023-04-03T04:18:26;6.00;99.90
4910;DHT22;2470;49.868;8.660;2023-04-03T04:20:51;6.00;99.90
4910;DHT22;2470;49.868;8.660;2023-04-03T04:23:18;6.00;99.90
4910;DHT22;2470;49.868;8.660;2023-04-03T04:25:47;6.10;99.90
4910;DHT22;2470;49.868;8.660;2023-04-03T04:28:13;6.10;99.90
4910;DHT22;2470;49.868;8.660;2023-04-03T04:30:39;6.10;99.90
4910;DHT22;2470;49.868;8.660;2023-04-03T04:33:05;6.10;99.90
4910;DHT22;2470;49.868;8.660;2023-04-03T04:35:30;6.00;99.90
4910;DHT22;2470;49.868;8.660;2023-04-03T04:37:56;6.00;99.90
4910;DHT22;2470;49.868;8.660;2023-04-03T04:40:22;6.00;99.90
4910;DHT22;2470;49.868;8.660;2023-04-03T04:42:47;6.10;99.90
4910;DHT22;2470;49.868;8.660;2023-04-03T04:45:13;6.10;99.90
4910;DHT22;2470;49.868;8.660;2023-04-03T04:47:40;6.00;99.90
4910;DHT22;2470;49.868;8.660;2023-04-03T04:50:06;6.00;99.90
4910;DHT22;2470;49.868;8.660;2023-04-03T04:52:31;6.00;99.90
4910;DHT22;2470;49.868;8.660;2023-04-03T04:54:57;6.00;99.90
4910;DHT22;2470;49.868;8.660;2023-04-03T04:57:22;5.90;99.90
4910;DHT22;2470;49.868;8.660;2023-04-03T04:59:48;5.90;99.90
4910;DHT22;2470;49.868;8.660;2023-04-03T05:02:13;5.90;99.90
4910;DHT22;2470;49.868;8.660;2023-04-03T05:04:39;5.90;99.90
4910;DHT22;2470;49.868;8.660;2023-04-03T05:07:04;5.90;99.90
4910;DHT22;2470;49.868;8.660;2023-04-03T05:09:30;5.90;99.90
4910;DHT22;2470;49.868;8.660;2023-04-03T05:11:56;5.80;99.90
4910;DHT22;2470;49.868;8.660;2023-04-03T05:14:22;5.80;99.90
4910;DHT22;2470;49.868;8.660;2023-04-03T05:16:47;5.80;99.90
4910;DHT22;2470;49.868;8.660;2023-04-03T05:19:13;5.90;99.90
4910;DHT22;2470;49.868;8.660;2023-04-03T05:21:38;5.90;99.90
4910;DHT22;2470;49.868;8.660;2023-04-03T05:24:05;5.90;99.90
4910;DHT22;2470;49.868;8.660;2023-04-03T05:26:34;5.90;99.90
4910;DHT22;2470;49.868;8.660;2023-04-03T05:28:59;5.90;99.90
4910;DHT22;2470;49.868;8.660;2023-04-03T05:31:25;5.90;99.90
4910;DHT22;2470;49.868;8.660;2023-04-03T05:33:51;5.90;99.90
4910;DHT22;2470;49.868;8.660;2023-04-03T05:36:16;5.90;99.90
4910;DHT22;2470;49.868;8.660;2023-04-03T05:38:42;5.90;99.90
4910;DHT22;2470;49.868;8.660;2023-04-03T05:41:08;6.00;99.90
4910;DHT22;2470;49.868;8.660;2023-04-03T05:43:33;6.10;99.90
4910;DHT22;2470;49.868;8.660;2023-04-03T05:45:59;6.00;99.90
4910;DHT22;2470;49.868;8.660;2023-04-03T05:48:25;6.10;99.90
4910;DHT22;2470;49.868;8.660;2023-04-03T05:50:51;6.10;99.90
4910;DHT22;2470;49.868;8.660;2023-04-03T05:53:27;6.10;99.90
4910;DHT22;2470;49.868;8.660;2023-04-03T05:55:53;6.10;99.90
4910;DHT22;2470;49.868;8.660;2023-04-03T05:58:19;6.20;99.90
4910;DHT22;2470;49.868;8.660;2023-04-03T06:00:44;6.30;99.90
4910;DHT22;2470;49.868;8.660;2023-04-03T06:03:11;6.30;99.90
4910;DHT22;2470;49.868;8.660;2023-04-03T06:05:37;6.30;99.90
4910;DHT22;2470;49.868;8.660;2023-04-03T06:08:02;6.40;99.90
4910;DHT22;2470;49.868;8.660;2023-04-03T06:10:28;6.50;99.90
4910;DHT22;2470;49.868;8.660;2023-04-03T06:12:54;6.50;99.90
4910;DHT22;2470;49.868;8.660;2023-04-03T06:15:19;6.50;99.90
4910;DHT22;2470;49.868;8.660;2023-04-03T06:17:45;6.50;99.90
4910;DHT22;2470;49.868;8.660;2023-04-03T06:20:11;6.60;99.90
4910;DHT22;2470;49.868;8.660;2023-04-03T06:22:37;6.70;99.90
4910;DHT22;2470;49.868;8.660;2023-04-03T06:25:03;6.70;99.90
4910;DHT22;2470;49.868;8.660;2023-04-03T06:27:30;6.70;99.90
4910;DHT22;2470;49.868;8.660;2023-04-03T06:29:55;6.70;99.90
4910;DHT22;2470;49.868;8.660;2023-04-03T06:32:21;6.70;99.90
4910;DHT22;2470;49.868;8.660;2023-04-03T06:34:47;6.80;99.90
4910;DHT22;2470;49.868;8.660;2023-04-03T06:37:16;6.70;99.90
4910;DHT22;2470;49.868;8.660;2023-04-03T06:39:42;6.70;99.90
4910;DHT22;2470;49.868;8.660;2023-04-03T06:42:07;6.70;99.90
4910;DHT22;2470;49.868;8.660;2023-04-03T06:44:33;6.60;99.90
4910;DHT22;2470;49.868;8.660;2023-04-03T06:47:00;6.70;99.90
4910;DHT22;2470;49.868;8.660;2023-04-03T06:49:26;6.80;99.90
4910;DHT22;2470;49.868;8.660;2023-04-03T06:51:51;6.90;99.90
4910;DHT22;2470;49.868;8.660;2023-04-03T06:54:17;6.90;99.90
4910;DHT22;2470;49.868;8.660;2023-04-03T06:56:43;6.80;99.90
4910;DHT22;2470;49.868;8.660;2023-04-03T06:59:09;6.70;99.90
4910;DHT22;2470;49.868;8.660;2023-04-03T07:01:35;6.70;99.90
4910;DHT22;2470;49.868;8.660;2023-04-03T07:04:01;6.80;99.90
4910;DHT22;2470;49.868;8.660;2023-04-03T07:06:26;6.90;99.90
4910;DHT22;2470;49.868;8.660;2023-04-03T07:08:52;6.90;99.90
4910;DHT22;2470;49.868;8.660;2023-04-03T07:11:18;6.90;99.90
4910;DHT22;2470;49.868;8.660;2023-04-03T07:13:44;6.90;99.90
4910;DHT22;2470;49.868;8.660;2023-04-03T07:16:09;6.90;99.90
4910;DHT22;2470;49.868;8.660;2023-04-03T07:18:35;6.90;99.90
4910;DHT22;2470;49.868;8.660;2023-04-03T07:21:01;6.90;99.90
4910;DHT22;2470;49.868;8.660;2023-04-03T07:23:27;7.00;99.90
4910;DHT22;2470;49.868;8.660;2023-04-03T07:25:53;7.00;99.90
4910;DHT22;2470;49.868;8.660;2023-04-03T07:28:20;7.00;99.90
4910;DHT22;2470;49.868;8.660;2023-04-03T07:30:48;7.00;99.90
4910;DHT22;2470;49.868;8.660;2023-04-03T07:33:14;7.10;99.90
4910;DHT22;2470;49.868;8.660;2023-04-03T07:35:41;7.10;99.90
4910;DHT22;2470;49.868;8.660;2023-04-03T07:38:08;7.20;99.90
4910;DHT22;2470;49.868;8.660;2023-04-03T07:40:34;7.20;99.90
4910;DHT22;2470;49.868;8.660;2023-04-03T07:43:00;7.20;99.90
4910;DHT22;2470;49.868;8.660;2023-04-03T07:45:26;7.20;99.90
4910;DHT22;2470;49.868;8.660;2023-04-03T07:47:51;7.20;99.90
4910;DHT22;2470;49.868;8.660;2023-04-03T07:50:17;7.20;99.90
4910;DHT22;2470;49.868;8.660;2023-04-03T07:52:44;7.30;99.90
4910;DHT22;2470;49.868;8.660;2023-04-03T07:55:11;7.40;99.90
4910;DHT22;2470;49.868;8.660;2023-04-03T07:57:36;7.40;99.90
4910;DHT22;2470;49.868;8.660;2023-04-03T08:00:04;7.40;99.90
4910;DHT22;2470;49.868;8.660;2023-04-03T08:02:30;7.40;99.90
4910;DHT22;2470;49.868;8.660;2023-04-03T08:04:57;7.20;99.90
4910;DHT22;2470;49.868;8.660;2023-04-03T08:07:23;7.00;99.90
4910;DHT22;2470;49.868;8.660;2023-04-03T08:09:48;7.00;99.90
4910;DHT22;2470;49.868;8.660;2023-04-03T08:12:14;6.90;99.90
4910;DHT22;2470;49.868;8.660;2023-04-03T08:14:40;6.90;99.90
4910;DHT22;2470;49.868;8.660;2023-04-03T08:17:06;7.00;99.90
4910;DHT22;2470;49.868;8.660;2023-04-03T08:19:34;7.10;99.90
4910;DHT22;2470;49.868;8.660;2023-04-03T08:22:00;7.30;99.90
4910;DHT22;2470;49.868;8.660;2023-04-03T08:24:28;7.20;99.90
4910;DHT22;2470;49.868;8.660;2023-04-03T08:26:54;7.30;99.90
4910;DHT22;2470;49.868;8.660;2023-04-03T08:29:19;7.30;99.90
4910;DHT22;2470;49.868;8.660;2023-04-03T08:31:46;7.40;99.90
4910;DHT22;2470;49.868;8.660;2023-04-03T08:34:12;7.30;99.50
4910;DHT22;2470;49.868;8.660;2023-04-03T08:36:38;7.20;99.40
4910;DHT22;2470;49.868;8.660;2023-04-03T08:39:04;7.10;99.90
4910;DHT22;2470;49.868;8.660;2023-04-03T08:41:37;7.00;99.90
4910;DHT22;2470;49.868;8.660;2023-04-03T08:44:21;7.00;99.90
4910;DHT22;2470;49.868;8.660;2023-04-03T08:49:43;7.10;99.90
4910;DHT22;2470;49.868;8.660;2023-04-03T08:52:18;7.30;99.90
4910;DHT22;2470;49.868;8.660;2023-04-03T08:54:54;7.20;99.90
4910;DHT22;2470;49.868;8.660;2023-04-03T08:57:34;7.20;99.90
4910;DHT22;2470;49.868;8.660;2023-04-03T09:00:04;7.20;99.90
4910;DHT22;2470;49.868;8.660;2023-04-03T09:02:35;7.30;99.90
4910;DHT22;2470;49.868;8.660;2023-04-03T09:05:17;7.30;99.90
4910;DHT22;2470;49.868;8.660;2023-04-03T09:07:47;7.20;99.90
4910;DHT22;2470;49.868;8.660;2023-04-03T09:10:16;7.20;99.80
4910;DHT22;2470;49.868;8.660;2023-04-03T09:12:53;7.20;99.40
4910;DHT22;2470;49.868;8.660;2023-04-03T09:15:24;7.30;99.00
4910;DHT22;2470;49.868;8.660;2023-04-03T09:18:25;7.40;99.40
4910;DHT22;2470;49.868;8.660;2023-04-03T09:23:32;7.80;99.10
4910;DHT22;2470;49.868;8.660;2023-04-03T09:26:05;7.90;98.20
4910;DHT22;2470;49.868;8.660;2023-04-03T09:28:37;8.10;98.10
4910;DHT22;2470;49.868;8.660;2023-04-03T09:31:21;8.20;97.60
4910;DHT22;2470;49.868;8.660;2023-04-03T09:33:53;8.30;96.80
4910;DHT22;2470;49.868;8.660;2023-04-03T09:36:45;8.40;96.40
4910;DHT22;2470;49.868;8.660;2023-04-03T09:39:19;8.60;96.00
4910;DHT22;2470;49.868;8.660;2023-04-03T09:42:05;8.70;95.30
4910;DHT22;2470;49.868;8.660;2023-04-03T09:44:35;8.70;94.60
4910;DHT22;2470;49.868;8.660;2023-04-03T09:47:39;8.60;94.30
4910;DHT22;2470;49.868;8.660;2023-04-03T09:52:38;8.70;94.30
4910;DHT22;2470;49.868;8.660;2023-04-03T09:55:24;8.80;94.30
4910;DHT22;2470;49.868;8.660;2023-04-03T09:58:05;8.90;93.70
4910;DHT22;2470;49.868;8.660;2023-04-03T10:00:55;8.90;93.70
4910;DHT22;2470;49.868;8.660;2023-04-03T10:03:34;8.90;93.60
4910;DHT22;2470;49.868;8.660;2023-04-03T10:06:02;8.90;93.80
4910;DHT22;2470;49.868;8.660;2023-04-03T10:08:31;9.00;93.60
4910;DHT22;2470;49.868;8.660;2023-04-03T10:11:15;9.20;93.60
4910;DHT22;2470;49.868;8.660;2023-04-03T10:13:53;9.40;93.40
4910;DHT22;2470;49.868;8.660;2023-04-03T10:16:24;9.50;93.00
4910;DHT22;2470;49.868;8.660;2023-04-03T10:21:54;9.50;92.60
4910;DHT22;2470;49.868;8.660;2023-04-03T10:27:18;9.80;92.40
4910;DHT22;2470;49.868;8.660;2023-04-03T10:32:55;10.20;90.90
4910;DHT22;2470;49.868;8.660;2023-04-03T10:44:11;10.20;88.70
4910;DHT22;2470;49.868;8.660;2023-04-03T10:47:02;10.60;88.70
4910;DHT22;2470;49.868;8.660;2023-04-03T10:49:50;10.70;86.50
4910;DHT22;2470;49.868;8.660;2023-04-03T10:52:23;10.70;85.10
4910;DHT22;2470;49.868;8.660;2023-04-03T10:55:00;10.80;84.10
4910;DHT22;2470;49.868;8.660;2023-04-03T10:57:28;10.70;83.80
4910;DHT22;2470;49.868;8.660;2023-04-03T11:00:02;10.70;84.50
4910;DHT22;2470;49.868;8.660;2023-04-03T11:02:36;10.60;84.60
4910;DHT22;2470;49.868;8.660;2023-04-03T11:05:15;10.50;83.80
4910;DHT22;2470;49.868;8.660;2023-04-03T11:07:46;10.50;83.50
4910;DHT22;2470;49.868;8.660;2023-04-03T11:10:26;10.40;84.80
4910;DHT22;2470;49.868;8.660;2023-04-03T11:15:53;10.50;84.40
4910;DHT22;2470;49.868;8.660;2023-04-03T11:18:25;10.50;84.20
4910;DHT22;2470;49.868;8.660;2023-04-03T11:21:12;10.60;83.60
4910;DHT22;2470;49.868;8.660;2023-04-03T11:23:41;10.60;82.50
4910;DHT22;2470;49.868;8.660;2023-04-03T11:26:12;10.50;82.00
4910;DHT22;2470;49.868;8.660;2023-04-03T11:28:40;10.70;83.40
4910;DHT22;2470;49.868;8.660;2023-04-03T11:31:42;11.10;84.10
4910;DHT22;2470;49.868;8.660;2023-04-03T11:34:27;11.30;82.30
4910;DHT22;2470;49.868;8.660;2023-04-03T11:37:00;11.30;79.60
4910;DHT22;2470;49.868;8.660;2023-04-03T11:39:30;11.20;78.80
4910;DHT22;2470;49.868;8.660;2023-04-03T11:42:24;11.10;79.70
4910;DHT22;2470;49.868;8.660;2023-04-03T11:44:51;11.10;79.10
4910;DHT22;2470;49.868;8.660;2023-04-03T11:47:45;11.20;79.00
4910;DHT22;2470;49.868;8.660;2023-04-03T11:52:58;11.30;80.40
4910;DHT22;2470;49.868;8.660;2023-04-03T11:58:12;12.00;76.90
4910;DHT22;2470;49.868;8.660;2023-04-03T12:08:30;12.00;71.00
4910;DHT22;2470;49.868;8.660;2023-04-03T12:16:24;11.50;70.90
4910;DHT22;2470;49.868;8.660;2023-04-03T12:26:33;11.90;69.60
4910;DHT22;2470;49.868;8.660;2023-04-03T12:29:10;12.20;69.60
4910;DHT22;2470;49.868;8.660;2023-04-03T12:32:07;12.70;68.20
4910;DHT22;2470;49.868;8.660;2023-04-03T12:37:51;14.20;63.40
4910;DHT22;2470;49.868;8.660;2023-04-03T12:43:43;15.10;59.20
4910;DHT22;2470;49.868;8.660;2023-04-03T12:46:18;16.40;57.70
4910;DHT22;2470;49.868;8.660;2023-04-03T12:51:36;19.80;51.70
4910;DHT22;2470;49.868;8.660;2023-04-03T12:54:25;21.00;49.20
4910;DHT22;2470;49.868;8.660;2023-04-03T12:56:51;22.70;41.70
4910;DHT22;2470;49.868;8.660;2023-04-03T12:59:25;23.00;38.10
4910;DHT22;2470;49.868;8.660;2023-04-03T13:01:59;24.20;37.50
4910;DHT22;2470;49.868;8.660;2023-04-03T13:04:27;25.60;35.00
4910;DHT22;2470;49.868;8.660;2023-04-03T13:06:54;26.70;31.50
4910;DHT22;2470;49.868;8.660;2023-04-03T13:11:47;28.80;29.00
4910;DHT22;2470;49.868;8.660;2023-04-03T13:14:20;29.80;27.50
4910;DHT22;2470;49.868;8.660;2023-04-03T13:17:00;30.80;26.60
4910;DHT22;2470;49.868;8.660;2023-04-03T13:19:28;31.90;24.80
4910;DHT22;2470;49.868;8.660;2023-04-03T13:22:04;32.30;24.60
4910;DHT22;2470;49.868;8.660;2023-04-03T13:24:33;32.70;23.70
4910;DHT22;2470;49.868;8.660;2023-04-03T13:27:01;33.30;23.40
4910;DHT22;2470;49.868;8.660;2023-04-03T13:29:31;33.60;22.90
4910;DHT22;2470;49.868;8.660;2023-04-03T13:31:58;34.20;22.70
4910;DHT22;2470;49.868;8.660;2023-04-03T13:34:34;34.70;22.40
4910;DHT22;2470;49.868;8.660;2023-04-03T13:37:01;35.40;21.90
4910;DHT22;2470;49.868;8.660;2023-04-03T13:39:31;35.90;21.60
4910;DHT22;2470;49.868;8.660;2023-04-03T13:41:59;36.30;21.10
4910;DHT22;2470;49.868;8.660;2023-04-03T13:44:30;36.70;21.10
4910;DHT22;2470;49.868;8.660;2023-04-03T13:49:40;37.60;20.60
4910;DHT22;2470;49.868;8.660;2023-04-03T13:52:29;37.60;19.90
4910;DHT22;2470;49.868;8.660;2023-04-03T13:54:58;36.10;20.20
4910;DHT22;2470;49.868;8.660;2023-04-03T13:57:25;36.30;20.40
4910;DHT22;2470;49.868;8.660;2023-04-03T13:59:50;35.10;20.20
4910;DHT22;2470;49.868;8.660;2023-04-03T14:02:23;33.00;20.60
4910;DHT22;2470;49.868;8.660;2023-04-03T14:04:57;33.60;20.70
4910;DHT22;2470;49.868;8.660;2023-04-03T14:07:25;32.70;20.20
4910;DHT22;2470;49.868;8.660;2023-04-03T14:09:52;32.70;21.10
4910;DHT22;2470;49.868;8.660;2023-04-03T14:12:24;33.80;20.70
4910;DHT22;2470;49.868;8.660;2023-04-03T14:14:51;33.90;20.20
4910;DHT22;2470;49.868;8.660;2023-04-03T14:17:19;34.30;20.50
4910;DHT22;2470;49.868;8.660;2023-04-03T14:19:47;35.50;20.40
4910;DHT22;2470;49.868;8.660;2023-04-03T14:22:16;36.90;20.00
4910;DHT22;2470;49.868;8.660;2023-04-03T14:24:42;37.10;19.20
4910;DHT22;2470;49.868;8.660;2023-04-03T14:29:42;33.80;19.90
4910;DHT22;2470;49.868;8.660;2023-04-03T14:32:13;30.40;20.20
4910;DHT22;2470;49.868;8.660;2023-04-03T14:34:40;28.30;21.70
4910;DHT22;2470;49.868;8.660;2023-04-03T14:37:10;26.40;22.70
4910;DHT22;2470;49.868;8.660;2023-04-03T14:39:36;24.90;23.50
4910;DHT22;2470;49.868;8.660;2023-04-03T14:42:02;24.00;24.70
4910;DHT22;2470;49.868;8.660;2023-04-03T14:44:27;23.70;24.40
4910;DHT22;2470;49.868;8.660;2023-04-03T14:46:53;22.80;24.90
4910;DHT22;2470;49.868;8.660;2023-04-03T14:49:20;21.70;25.50
4910;DHT22;2470;49.868;8.660;2023-04-03T14:51:47;20.70;26.40
4910;DHT22;2470;49.868;8.660;2023-04-03T14:54:20;20.10;27.00
4910;DHT22;2470;49.868;8.660;2023-04-03T14:56:50;19.40;27.20
4910;DHT22;2470;49.868;8.660;2023-04-03T14:59:16;19.30;28.20
4910;DHT22;2470;49.868;8.660;2023-04-03T15:01:43;19.00;27.80
4910;DHT22;2470;49.868;8.660;2023-04-03T15:04:15;18.50;28.40
4910;DHT22;2470;49.868;8.660;2023-04-03T15:06:42;18.10;28.70
4910;DHT22;2470;49.868;8.660;2023-04-03T15:09:34;17.80;28.80
4910;DHT22;2470;49.868;8.660;2023-04-03T15:11:59;17.30;29.30
4910;DHT22;2470;49.868;8.660;2023-04-03T15:14:25;16.90;29.80
4910;DHT22;2470;49.868;8.660;2023-04-03T15:16:50;16.50;29.80
4910;DHT22;2470;49.868;8.660;2023-04-03T15:19:16;16.20;30.20
4910;DHT22;2470;49.868;8.660;2023-04-03T15:21:41;16.10;31.30
4910;DHT22;2470;49.868;8.660;2023-04-03T15:24:09;16.20;32.10
4910;DHT22;2470;49.868;8.660;2023-04-03T15:26:34;16.50;31.40
4910;DHT22;2470;49.868;8.660;2023-04-03T15:29:00;16.40;30.80
4910;DHT22;2470;49.868;8.660;2023-04-03T15:31:26;16.10;30.40
4910;DHT22;2470;49.868;8.660;2023-04-03T15:33:52;15.80;30.40
4910;DHT22;2470;49.868;8.660;2023-04-03T15:36:17;15.70;32.00
4910;DHT22;2470;49.868;8.660;2023-04-03T15:38:43;15.80;32.30
4910;DHT22;2470;49.868;8.660;2023-04-03T15:41:08;15.70;31.60
4910;DHT22;2470;49.868;8.660;2023-04-03T15:43:34;15.20;32.50
4910;DHT22;2470;49.868;8.660;2023-04-03T15:46:00;15.30;32.70
4910;DHT22;2470;49.868;8.660;2023-04-03T15:48:27;15.40;33.10
4910;DHT22;2470;49.868;8.660;2023-04-03T15:50:53;15.70;33.80
4910;DHT22;2470;49.868;8.660;2023-04-03T15:53:19;15.70;32.50
4910;DHT22;2470;49.868;8.660;2023-04-03T15:55:45;15.60;32.90
4910;DHT22;2470;49.868;8.660;2023-04-03T15:58:11;15.40;33.30
4910;DHT22;2470;49.868;8.660;2023-04-03T16:00:37;15.40;33.20
4910;DHT22;2470;49.868;8.660;2023-04-03T16:03:09;15.70;33.30
4910;DHT22;2470;49.868;8.660;2023-04-03T16:05:37;16.30;32.00
4910;DHT22;2470;49.868;8.660;2023-04-03T16:08:03;16.20;31.70
4910;DHT22;2470;49.868;8.660;2023-04-03T16:10:29;15.90;32.20
4910;DHT22;2470;49.868;8.660;2023-04-03T16:12:55;15.90;32.10
4910;DHT22;2470;49.868;8.660;2023-04-03T16:15:20;16.10;32.10
4910;DHT22;2470;49.868;8.660;2023-04-03T16:17:46;16.70;31.80
4910;DHT22;2470;49.868;8.660;2023-04-03T16:20:13;17.80;31.60
4910;DHT22;2470;49.868;8.660;2023-04-03T16:22:40;18.30;30.40
4910;DHT22;2470;49.868;8.660;2023-04-03T16:25:07;18.40;30.10
4910;DHT22;2470;49.868;8.660;2023-04-03T16:27:33;19.30;29.90
4910;DHT22;2470;49.868;8.660;2023-04-03T16:29:58;20.00;29.60
4910;DHT22;2470;49.868;8.660;2023-04-03T16:32:27;21.60;28.90
4910;DHT22;2470;49.868;8.660;2023-04-03T16:34:54;22.20;27.90
4910;DHT22;2470;49.868;8.660;2023-04-03T16:37:20;22.30;27.90
4910;DHT22;2470;49.868;8.660;2023-04-03T16:39:45;22.00;27.20
4910;DHT22;2470;49.868;8.660;2023-04-03T16:42:11;22.00;27.30
4910;DHT22;2470;49.868;8.660;2023-04-03T16:44:37;22.40;27.30
4910;DHT22;2470;49.868;8.660;2023-04-03T16:47:03;23.00;27.20
4910;DHT22;2470;49.868;8.660;2023-04-03T16:49:28;23.70;26.70
4910;DHT22;2470;49.868;8.660;2023-04-03T16:52:04;24.00;26.40
4910;DHT22;2470;49.868;8.660;2023-04-03T16:54:31;24.20;26.20
4910;DHT22;2470;49.868;8.660;2023-04-03T16:56:57;23.40;25.70
4910;DHT22;2470;49.868;8.660;2023-04-03T16:59:23;21.20;26.10
4910;DHT22;2470;49.868;8.660;2023-04-03T17:01:49;19.10;27.50
4910;DHT22;2470;49.868;8.660;2023-04-03T17:04:14;17.40;29.00
4910;DHT22;2470;49.868;8.660;2023-04-03T17:06:40;16.20;30.10
4910;DHT22;2470;49.868;8.660;2023-04-03T17:09:06;15.20;31.60
4910;DHT22;2470;49.868;8.660;2023-04-03T17:11:32;14.60;32.10
4910;DHT22;2470;49.868;8.660;2023-04-03T17:13:58;14.30;33.00
4910;DHT22;2470;49.868;8.660;2023-04-03T17:16:24;14.10;33.10
4910;DHT22;2470;49.868;8.660;2023-04-03T17:18:50;14.50;32.90
4910;DHT22;2470;49.868;8.660;2023-04-03T17:21:17;14.90;32.80
4910;DHT22;2470;49.868;8.660;2023-04-03T17:23:46;15.40;32.50
4910;DHT22;2470;49.868;8.660;2023-04-03T17:26:12;15.50;31.90
4910;DHT22;2470;49.868;8.660;2023-04-03T17:28:37;15.30;31.90
4910;DHT22;2470;49.868;8.660;2023-04-03T17:31:05;15.20;32.20
4910;DHT22;2470;49.868;8.660;2023-04-03T17:33:31;15.20;32.40
4910;DHT22;2470;49.868;8.660;2023-04-03T17:35:57;14.90;32.60
4910;DHT22;2470;49.868;8.660;2023-04-03T17:38:23;14.60;33.20
4910;DHT22;2470;49.868;8.660;2023-04-03T17:40:49;14.10;33.80
4910;DHT22;2470;49.868;8.660;2023-04-03T17:43:15;13.40;34.40